YZU weather

Whitecourt Airport
Whitecourt, Alberta, Canada

Public forecast

Using degrees Celsius for public forecast. Weather courtesy of forecast.io.

METAR (pilot weather report)

Retrieved 2019/08/25 15:00 UTC (22 minutes ago):

CYZU 251500Z 27004KT 15SM FEW120 SCT140 SCT240 11/07 A2986 RMK AC1AC2CI1 SLP124 DENSITY ALT 2900FT

TAF (pilot weather forecast)

Retrieved 2019/08/25 14:00 UTC (1 hour ago):

TAF CYZU 251410Z 2514/2523 28006KT P6SM SCT140 SCT220 BECMG 2516/2518 29012KT FM251800 29012KT P6SM SCT020 BKN040 TEMPO 2518/2521 5SM -SHRA BR BKN020 OVC030 FM252100 30012KT P6SM -SHRA BKN040 RMK NXT FCST BY 251900Z